Mesa, AZ

5:58 PM MST on January 23, 2017 (GMT -0700)
Country club estates | | Change Station

Elev 1250 ft 33.44 °N, 111.85 °W | Updated 18 seconds ago

Overcast
Overcast
54.7 °F
Feels Like 54.7 °F
N
5.3
Wind Variable Wind from North

Today
High -- | Low -- °F
--% Chance of Precip.
Yesterday
High -- | Low -- °F
Precip. -- in
Pressure 29.72 in
Visibility 10.0 miles
Clouds Few 2900 ft
Scattered Clouds 4600 ft
Mostly Cloudy 6000 ft
Mostly Cloudy 13000 ft
Mostly Cloudy 20000 ft
Dew Point 47 °F
Humidity 75%
Rainfall 0.00 in
Snow Depth Not available.
7:28 AM 5:50 PM
Waning Crescent, 15% visible
METAR KPHX 240051Z 33005KT 10SM FEW029 SCT046 BKN060 BKN130 BKN200 13/08 A2974 RMK AO2 RAB08E21 SLP064 P0000 T01330083
Pressure 29.72 in
Visibility 10.0 miles
Clouds Few 2900 ft
Scattered Clouds 4600 ft
Mostly Cloudy 6000 ft
Mostly Cloudy 13000 ft
Mostly Cloudy 20000 ft
Dew Point 47 °F
Humidity 75%
Rainfall 0.00 in
Snow Depth Not available.
7:28 AM 5:50 PM
Waning Crescent, 15% visible
METAR KPHX 240051Z 33005KT 10SM FEW029 SCT046 BKN060 BKN130 BKN200 13/08 A2974 RMK AO2 RAB08E21 SLP064 P0000 T01330083

Get Your Daily Forecast Email!

Thanks for signing up!

Be on the lookout for a verification email in your inbox.

You'll start receiving the daily forecast at 8 AM.

×

10-Day Weather Forecast

Almanac

Astronomy

Jan. 23, 2017 Rise Set
Actual Time
Civil Twilight
Nautical Twilight
Astronomical Twilight
Moon
Length of Visible Light
Length of Day
Tomorrow will be .
, % of the Moon is Illuminated

Today's Extremes

State Highs State Lows

Community

WunderPhotos

Upload Photos

1,962,540 photos uploaded!

WunderBlog® & News

Nearby

Air Quality

  Air Quality AQ Index Pollutant
Not available.

Snow Depth

Station Depth Elevation

Earthquake Activity

City Distance Mag. Time & Date
Minimum magnitude displayed is 2.5.

Coastal Water Temperatures

Place Temperature

Stations

Nearby Weather Stations

Station Location Temp. Windchill Dew Point Humidity Wind Precip. Elev Updated Type
                   

Watches & Warnings

There are currently no watches in effect.